Catàleg de serveis del Meteocat
Campanya meteocatpedra

Dades de l'estació automàtica Dosrius - PN Montnegre Corredor

?
?
Resum diari 22:30 TU
Dades diàries de l'estació meteorològica
Temperatura mitjana 8.4 °C
Temperatura màxima 12.4 °C 13:14 TU
Temperatura mínima 5.4 °C 2:09 TU
Humitat relativa mitjana 79%
Precipitació acumulada 0.0 mm
Ratxa màxima del vent (2 m) 19.1 km/h - 133º 13:56 TU
Irradiació solar global 5.3 MJ/m2

El tram horari està expressat en Temps Universal (TU). Cal sumar una hora en horari d'hivern i dues en horari d'estiu per passar a l'hora oficial.

Dosrius - PN Montnegre Corredor

Metadades estació meteorol´gica
Municipi Dosrius
Comarca Maresme
Altitud 460 m
Data alta 09.08.1996
Estat actual Operativa
Dades de període
Període
TU
TM
°C
TX
°C
TN
°C
HRM
%
PPT
mm
VVM (2 m)
km/h
DVM (2 m)
graus
VVX (2 m)
km/h
RS
W/m2
00:00 - 00:30 7.2 7.5 7.0 76 0.0 2.2 23 4.7 0
00:30 - 01:00 6.7 7.1 6.3 79 0.0 0.7 48 2.9 0
01:00 - 01:30 6.3 6.7 5.7 81 0.0 1.8 26 3.6 0
01:30 - 02:00 5.9 6.1 5.7 83 0.0 1.4 22 3.2 0
02:00 - 02:30 5.8 6.5 5.4 85 0.0 1.8 30 2.9 0
02:30 - 03:00 6.4 6.8 5.8 81 0.0 2.2 21 3.6 0
03:00 - 03:30 6.4 7.0 5.9 81 0.0 2.2 15 3.6 0
03:30 - 04:00 7.4 7.7 7.1 75 0.0 1.8 359 3.6 0
04:00 - 04:30 7.3 7.5 7.1 75 0.0 0.7 352 3.6 0
04:30 - 05:00 7.2 7.3 7.1 76 0.0 1.8 14 4.7 0
05:00 - 05:30 7.5 7.8 7.0 77 0.0 2.5 348 7.2 0
05:30 - 06:00 7.9 8.0 7.8 75 0.0 4.7 21 11.9 0
06:00 - 06:30 7.9 7.9 7.9 77 0.0 5.4 31 13.0 0
06:30 - 07:00 8.0 8.1 7.9 76 0.0 5.8 32 12.2 4
07:00 - 07:30 8.2 8.3 8.1 74 0.0 5.0 37 15.8 17
07:30 - 08:00 8.5 8.6 8.3 72 0.0 4.7 48 16.6 26
08:00 - 08:30 8.6 8.6 8.6 72 0.0 4.0 26 10.4 34
08:30 - 09:00 8.6 8.7 8.6 71 0.0 3.6 25 9.4 56
09:00 - 09:30 8.7 8.7 8.7 70 0.0 4.0 24 13.0 73
09:30 - 10:00 9.0 9.2 8.7 69 0.0 4.0 36 9.4 132
10:00 - 10:30 9.4 9.8 9.2 69 0.0 2.5 15 9.0 164
10:30 - 11:00 9.9 10.2 9.6 69 0.0 1.8 20 8.6 138
11:00 - 11:30 9.2 9.5 9.1 77 0.0 0.7 334 4.7 117
11:30 - 12:00 9.2 9.5 8.9 76 0.0 1.4 322 5.8 154
12:00 - 12:30 9.4 9.8 9.0 74 0.0 1.4 312 6.1 202
12:30 - 13:00 10.2 11.2 9.7 71 0.0 1.8 252 6.1 282
13:00 - 13:30 11.6 12.4 11.1 69 0.0 5.0 186 15.5 392
13:30 - 14:00 11.4 11.9 11.2 68 0.0 6.8 177 19.1 369
14:00 - 14:30 11.6 12.0 11.3 67 0.0 7.6 182 18.4 315
14:30 - 15:00 11.5 11.8 11.2 67 0.0 6.5 171 16.2 238
15:00 - 15:30 11.3 11.6 11.1 69 0.0 6.8 169 14.8 159
15:30 - 16:00 10.9 11.2 10.6 71 0.0 6.8 172 15.8 84
16:00 - 16:30 10.2 10.5 9.6 74 0.0 5.0 156 13.0 22
16:30 - 17:00 9.2 9.6 9.0 84 0.0 4.0 156 10.4 0
17:00 - 17:30 8.9 9.0 8.8 89 0.0 4.0 152 9.7 0
17:30 - 18:00 8.6 8.8 8.4 90 0.0 2.9 136 8.3 0
18:00 - 18:30 8.2 8.4 8.0 90 0.0 2.9 107 7.2 0
18:30 - 19:00 8.4 8.5 8.3 88 0.0 2.9 137 8.3 0
19:00 - 19:30 8.4 8.5 8.2 90 0.0 2.2 144 8.6 0
19:30 - 20:00 8.0 8.2 7.3 92 0.0 1.8 104 6.1 0
20:00 - 20:30 7.3 7.5 7.1 95 0.0 0.7 48 3.2 0
20:30 - 21:00 7.2 7.5 7.0 95 0.0 1.4 61 3.2 0
21:00 - 21:30 7.2 7.3 7.0 95 0.0 0.7 39 2.9 0
21:30 - 22:00 6.9 7.2 6.6 95 0.0 0.7 31 3.2 0
22:00 - 22:30 6.6 6.9 6.4 95 0.0 1.1 12 3.2 0
22:30 - 23:00 6.9 7.1 6.4 93 0.0 1.4 31 3.6 0

Les dades en taronja només han passat un control de qualitat automàtic. Resta pendent la seva validació definitiva.